createdAt,value
2018-04-17T00:00:52.169Z,101779.09
2018-04-17T00:03:20.429Z,101775.30
2018-04-17T00:05:48.702Z,101784.72
2018-04-17T00:08:17.383Z,101778.03
2018-04-17T00:10:45.615Z,101782.58
2018-04-17T00:13:13.821Z,101791.10
2018-04-17T00:15:42.512Z,101787.62
2018-04-17T00:18:10.743Z,101784.69
2018-04-17T00:20:39.050Z,101787.85
2018-04-17T00:23:07.565Z,101788.40
2018-04-17T00:25:35.757Z,101792.00
2018-04-17T00:28:04.060Z,101790.56
2018-04-17T00:30:32.724Z,101792.89
2018-04-17T00:33:00.922Z,101792.70
2018-04-17T00:35:29.281Z,101802.69
2018-04-17T00:37:57.949Z,101798.12
2018-04-17T00:40:26.140Z,101798.59
2018-04-17T00:42:54.343Z,101797.27
2018-04-17T00:45:23.085Z,101799.16
2018-04-17T00:47:51.358Z,101802.11
2018-04-17T00:50:19.653Z,101805.58
2018-04-17T00:52:48.203Z,101800.61
2018-04-17T00:55:16.403Z,101804.77
2018-04-17T00:57:44.712Z,101802.01
2018-04-17T01:00:13.607Z,101807.03
2018-04-17T01:02:41.835Z,101800.09
2018-04-17T01:05:10.038Z,101799.67
2018-04-17T01:07:38.576Z,101804.53
2018-04-17T01:10:06.869Z,101805.02
2018-04-17T01:12:35.067Z,101817.39
2018-04-17T01:15:03.610Z,101825.84
2018-04-17T01:17:32.201Z,101819.73
2018-04-17T01:20:00.413Z,101825.20
2018-04-17T01:22:29.209Z,101824.40
2018-04-17T01:24:57.454Z,101827.66
2018-04-17T01:27:25.675Z,101826.03
2018-04-17T01:29:54.402Z,101827.02
2018-04-17T01:32:22.608Z,101824.06
2018-04-17T01:34:50.803Z,101829.86
2018-04-17T01:37:19.502Z,101832.88
2018-04-17T01:39:47.717Z,101834.32
2018-04-17T01:42:15.928Z,101838.41
2018-04-17T01:44:44.692Z,101838.09
2018-04-17T01:47:12.912Z,101836.91
2018-04-17T01:49:41.122Z,101844.08
2018-04-17T01:52:09.717Z,101848.11
2018-04-17T01:54:38.070Z,101855.67
2018-04-17T01:57:06.267Z,101859.27
2018-04-17T01:59:34.908Z,101858.50
2018-04-17T02:02:03.144Z,101861.58
2018-04-17T02:04:31.338Z,101859.94
2018-04-17T02:07:00.080Z,101853.33
2018-04-17T02:09:28.300Z,101855.54
2018-04-17T02:11:56.516Z,101862.33
2018-04-17T02:14:25.315Z,101858.02
2018-04-17T02:16:53.544Z,101863.88
2018-04-17T02:19:21.872Z,101868.90
2018-04-17T02:21:50.772Z,101863.38
2018-04-17T02:24:19.442Z,101866.58
2018-04-17T02:26:47.681Z,101863.10
2018-04-17T02:29:15.903Z,101868.51
2018-04-17T02:31:44.606Z,101874.78
2018-04-17T02:34:12.807Z,101870.98
2018-04-17T02:36:41.019Z,101874.52
2018-04-17T02:39:09.811Z,101882.06
2018-04-17T02:41:38.030Z,101881.51
2018-04-17T02:44:06.303Z,101883.45
2018-04-17T02:46:34.755Z,101889.05
2018-04-17T02:49:02.973Z,101891.81
2018-04-17T02:51:31.305Z,101892.18
2018-04-17T02:53:59.971Z,101895.13
2018-04-17T02:56:28.167Z,101890.45
2018-04-17T02:58:56.449Z,101889.48
2018-04-17T03:01:25.261Z,101896.30
2018-04-17T03:03:53.604Z,101895.13
2018-04-17T03:06:22.500Z,101890.98
2018-04-17T03:08:51.005Z,101892.55
2018-04-17T03:11:19.231Z,101896.50
2018-04-17T03:13:47.480Z,101892.59
2018-04-17T03:16:15.980Z,101891.37
2018-04-17T03:18:44.230Z,101893.58
2018-04-17T03:21:12.527Z,101894.11
2018-04-17T03:23:41.104Z,101892.39
2018-04-17T03:26:09.410Z,101894.70
2018-04-17T03:28:37.635Z,101892.09
2018-04-17T03:31:06.720Z,101892.78
2018-04-17T03:33:34.956Z,101884.47
2018-04-17T03:36:03.162Z,101879.53
2018-04-17T03:38:31.676Z,101881.77
2018-04-17T03:43:34.233Z,101896.12
2018-04-17T03:46:02.839Z,101897.63
2018-04-17T03:48:31.382Z,101902.96
2018-04-17T03:50:59.591Z,101903.48
2018-04-17T03:53:27.873Z,101902.30
2018-04-17T03:55:56.772Z,101898.88
2018-04-17T03:58:25.285Z,101899.50
2018-04-17T04:00:53.498Z,101899.98
2018-04-17T04:03:22.104Z,101892.11
2018-04-17T04:05:50.352Z,101896.51
2018-04-17T04:08:18.581Z,101896.73
2018-04-17T04:11:12.925Z,101897.70
2018-04-17T04:13:47.631Z,101900.70
2018-04-17T04:16:28.104Z,101899.95
2018-04-17T04:19:08.262Z,101907.83
2018-04-17T04:21:48.311Z,101908.22
2018-04-17T04:24:28.385Z,101911.83
2018-04-17T04:26:57.180Z,101911.39
2018-04-17T04:29:26.634Z,101914.46
2018-04-17T04:31:54.852Z,101912.40
2018-04-17T04:34:23.703Z,101914.95
2018-04-17T04:36:52.152Z,101922.13
2018-04-17T04:41:54.889Z,101923.17
2018-04-17T04:44:23.102Z,101922.60
2018-04-17T04:46:51.694Z,101929.59
2018-04-17T04:49:19.902Z,101931.88
2018-04-17T04:51:48.631Z,101932.84
2018-04-17T04:54:17.415Z,101936.37
2018-04-17T04:56:45.620Z,101940.89
2018-04-17T04:59:13.863Z,101940.84
2018-04-17T05:01:42.521Z,101946.96
2018-04-17T05:04:11.816Z,101953.03
2018-04-17T05:06:40.039Z,101956.16
2018-04-17T05:09:08.832Z,101960.42
2018-04-17T05:11:37.133Z,101961.78
2018-04-17T05:14:05.328Z,101967.95
2018-04-17T05:16:33.843Z,101974.62
2018-04-17T05:19:02.162Z,101978.14
2018-04-17T05:21:30.448Z,101979.98
2018-04-17T05:23:59.292Z,101990.53
2018-04-17T05:26:28.052Z,101998.90
2018-04-17T05:28:56.245Z,102002.49
2018-04-17T05:31:26.256Z,102006.77
2018-04-17T05:33:54.457Z,102011.64
2018-04-17T05:36:23.173Z,102025.59
2018-04-17T05:38:51.401Z,102027.31
2018-04-17T05:41:19.623Z,102033.31
2018-04-17T05:43:48.413Z,102039.39
2018-04-17T05:46:16.607Z,102054.22
2018-04-17T05:48:44.819Z,102053.21
2018-04-17T05:51:13.547Z,102061.80
2018-04-17T05:53:41.820Z,102063.39
2018-04-17T05:56:11.518Z,102064.23
2018-04-17T05:58:41.860Z,102069.16
2018-04-17T06:01:20.282Z,102069.84
2018-04-17T06:13:37.982Z,102072.70
2018-04-17T06:16:07.599Z,102080.02
2018-04-17T06:18:39.405Z,102082.52
2018-04-17T06:21:07.711Z,102087.71
2018-04-17T06:23:38.684Z,102087.45
2018-04-17T06:26:07.525Z,102085.08
2018-04-17T06:28:39.681Z,102083.97
2018-04-17T06:31:09.237Z,102086.91
2018-04-17T06:33:38.518Z,102089.33
2018-04-17T06:36:06.728Z,102096.68
2018-04-17T06:38:34.935Z,102087.16
2018-04-17T06:41:03.644Z,102091.24
2018-04-17T06:43:31.849Z,102094.52
2018-04-17T06:46:00.534Z,102093.45
2018-04-17T06:48:29.823Z,102090.96
2018-04-17T06:50:58.042Z,102094.58
2018-04-17T06:53:26.312Z,102096.09
2018-04-17T06:55:54.916Z,102100.26
2018-04-17T06:58:23.113Z,102106.09
2018-04-17T07:00:51.449Z,102104.92
2018-04-17T07:03:19.998Z,102110.80
2018-04-17T07:05:48.261Z,102114.50
2018-04-17T07:08:16.479Z,102118.61
2018-04-17T07:10:45.111Z,102122.16
2018-04-17T07:13:13.325Z,102118.30
2018-04-17T07:15:41.613Z,102122.22
2018-04-17T07:18:10.139Z,102129.17
2018-04-17T07:20:38.424Z,102122.78
2018-04-17T07:23:06.629Z,102121.62
2018-04-17T07:25:35.273Z,102123.53
2018-04-17T07:28:03.508Z,102131.20
2018-04-17T07:30:31.817Z,102132.80
2018-04-17T07:33:00.340Z,102133.41
2018-04-17T07:35:28.547Z,102133.50
2018-04-17T07:37:56.864Z,102142.84
2018-04-17T07:40:25.351Z,102138.50
2018-04-17T07:42:53.599Z,102139.10
2018-04-17T07:45:21.778Z,102142.45
2018-04-17T07:48:01.745Z,102148.08
2018-04-17T07:50:30.434Z,102149.22
2018-04-17T07:52:58.652Z,102153.57
2018-04-17T07:55:26.974Z,102153.16
2018-04-17T07:57:55.540Z,102159.29
2018-04-17T08:00:23.754Z,102158.05
2018-04-17T08:02:52.000Z,102162.84
2018-04-17T08:05:20.579Z,102164.88
2018-04-17T08:07:48.814Z,102166.13
2018-04-17T08:10:17.114Z,102170.19
2018-04-17T08:12:45.645Z,102166.56
2018-04-17T08:15:13.855Z,102158.98
2018-04-17T08:17:42.703Z,102162.26
2018-04-17T08:20:11.696Z,102167.16
2018-04-17T08:22:40.282Z,102173.77
2018-04-17T08:25:08.517Z,102173.00
2018-04-17T08:27:36.734Z,102173.72
2018-04-17T08:30:05.410Z,102175.33
2018-04-17T08:32:33.607Z,102179.05
2018-04-17T08:35:01.809Z,102175.80
2018-04-17T08:37:30.509Z,102178.43
2018-04-17T08:39:58.703Z,102179.79
2018-04-17T08:42:26.926Z,102176.34
2018-04-17T08:44:55.568Z,102176.11
2018-04-17T08:47:23.785Z,102173.23
2018-04-17T08:49:52.024Z,102167.30
2018-04-17T08:52:20.791Z,102165.91
2018-04-17T08:54:49.003Z,102165.23
2018-04-17T08:57:17.208Z,102148.58
2018-04-17T08:59:45.945Z,102154.73
2018-04-17T09:02:14.144Z,102155.53
2018-04-17T09:04:42.363Z,102160.31
2018-04-17T09:07:10.985Z,102159.98
2018-04-17T09:09:39.190Z,102165.21
2018-04-17T09:12:07.398Z,102164.39
2018-04-17T09:14:36.117Z,102168.16
2018-04-17T09:17:04.575Z,102160.52
2018-04-17T09:19:33.739Z,102156.45
2018-04-17T09:22:02.276Z,102161.70
2018-04-17T09:24:30.499Z,102159.42
2018-04-17T09:26:58.689Z,102162.23
2018-04-17T09:29:27.227Z,102167.02
2018-04-17T09:31:55.451Z,102165.52
2018-04-17T09:34:23.661Z,102168.84
2018-04-17T09:36:51.988Z,102153.89
2018-04-17T09:39:20.205Z,102160.86
2018-04-17T09:41:48.549Z,102166.39
2018-04-17T09:44:17.108Z,102159.41
2018-04-17T09:46:46.666Z,102158.26
2018-04-17T09:49:16.599Z,102158.30
2018-04-17T09:51:44.803Z,102160.89
2018-04-17T09:54:13.590Z,102162.52
2018-04-17T09:56:42.194Z,102163.30
2018-04-17T09:59:10.516Z,102164.70
2018-04-17T10:01:38.732Z,102161.44
2018-04-17T10:04:07.352Z,102166.95
2018-04-17T10:06:35.549Z,102164.69
2018-04-17T10:09:03.905Z,102164.02
2018-04-17T10:11:32.454Z,102157.95
2018-04-17T10:14:00.695Z,102146.09
2018-04-17T10:16:28.931Z,102150.98
2018-04-17T10:18:57.504Z,102146.65
2018-04-17T10:21:25.800Z,102154.66
2018-04-17T10:23:54.078Z,102150.53
2018-04-17T10:26:22.634Z,102152.06
2018-04-17T10:28:50.857Z,102141.39
2018-04-17T10:31:19.176Z,102144.83
2018-04-17T10:33:47.803Z,102140.62
2018-04-17T10:36:16.026Z,102133.56
2018-04-17T10:38:44.304Z,102137.80
2018-04-17T10:41:12.944Z,102136.05
2018-04-17T10:43:41.161Z,102126.60
2018-04-17T10:46:09.552Z,102121.13
2018-04-17T10:48:38.063Z,102122.88
2018-04-17T10:51:06.277Z,102118.95
2018-04-17T10:53:34.547Z,102118.64
2018-04-17T10:56:03.115Z,102125.05
2018-04-17T10:58:32.565Z,102129.78
2018-04-17T11:01:00.776Z,102120.23
2018-04-17T11:03:28.975Z,102117.94
2018-04-17T11:05:57.639Z,102121.37
2018-04-17T11:08:25.846Z,102115.13
2018-04-17T11:10:54.294Z,102113.21
2018-04-17T11:13:22.966Z,102109.45
2018-04-17T11:15:51.151Z,102115.16
2018-04-17T11:18:19.416Z,102124.98
2018-04-17T11:20:47.814Z,102122.09
2018-04-17T11:23:16.045Z,102129.14
2018-04-17T11:25:44.203Z,102126.72
2018-04-17T11:28:12.505Z,102128.56
2018-04-17T11:30:40.745Z,102134.53
2018-04-17T11:33:10.699Z,102125.78
2018-04-17T11:35:39.435Z,102125.17
2018-04-17T11:38:08.080Z,102124.23
2018-04-17T11:40:36.307Z,102128.18
2018-04-17T11:43:04.566Z,102124.90
2018-04-17T11:45:33.339Z,102122.25
2018-04-17T11:48:01.520Z,102123.68
2018-04-17T11:50:29.763Z,102117.27
2018-04-17T11:52:58.342Z,102122.95
2018-04-17T11:55:26.559Z,102113.09
2018-04-17T11:57:54.815Z,102115.75
2018-04-17T12:00:23.456Z,102119.31
2018-04-17T12:02:51.665Z,102116.89
2018-04-17T12:05:19.878Z,102111.52
2018-04-17T12:07:48.624Z,102113.95
2018-04-17T12:10:16.842Z,102103.25
2018-04-17T12:12:45.073Z,102114.64
2018-04-17T12:15:13.778Z,102113.95
2018-04-17T12:17:41.983Z,102120.53
2018-04-17T12:20:10.192Z,102118.05
2018-04-17T12:22:38.822Z,102122.09
2018-04-17T12:25:07.033Z,102119.20
2018-04-17T12:27:36.374Z,102112.52
2018-04-17T12:30:04.990Z,102105.67
2018-04-17T12:32:33.229Z,102106.55
2018-04-17T12:35:01.447Z,102100.84
2018-04-17T12:37:30.093Z,102098.05
2018-04-17T12:39:58.372Z,102097.33
2018-04-17T12:42:26.944Z,102108.64
2018-04-17T12:44:55.538Z,102106.26
2018-04-17T12:47:24.155Z,102091.30
2018-04-17T12:49:52.356Z,102106.61
2018-04-17T12:52:20.676Z,102107.56
2018-04-17T12:54:49.335Z,102108.39
2018-04-17T12:57:17.539Z,102111.22
2018-04-17T12:59:45.750Z,102102.30
2018-04-17T13:02:14.493Z,102111.84
2018-04-17T13:04:42.748Z,102110.55
2018-04-17T13:07:11.180Z,102115.65
2018-04-17T13:09:39.643Z,102109.46
2018-04-17T13:12:07.853Z,102106.17
2018-04-17T13:14:36.103Z,102103.03
2018-04-17T13:17:05.292Z,102106.60
2018-04-17T13:19:33.537Z,102110.94
2018-04-17T13:22:01.916Z,102097.15
2018-04-17T13:24:30.347Z,102087.11
2018-04-17T13:26:58.608Z,102088.13
2018-04-17T13:29:26.896Z,102078.08
2018-04-17T13:31:55.518Z,102073.83
2018-04-17T13:34:24.979Z,102079.06
2018-04-17T13:36:53.170Z,102075.39
2018-04-17T13:39:26.475Z,102070.77
2018-04-17T13:41:55.112Z,102057.36
2018-04-17T13:44:24.011Z,102061.70
2018-04-17T13:46:52.269Z,102061.66
2018-04-17T13:49:20.830Z,102067.11
2018-04-17T13:51:49.056Z,102057.59
2018-04-17T13:54:17.293Z,102049.22
2018-04-17T13:56:45.972Z,102045.27
2018-04-17T13:59:14.199Z,102060.71
2018-04-17T14:01:42.435Z,102052.48
2018-04-17T14:04:10.991Z,102052.22
2018-04-17T14:06:39.205Z,102054.48
2018-04-17T14:09:07.642Z,102051.51
2018-04-17T14:11:36.163Z,102058.66
2018-04-17T14:14:04.392Z,102059.44
2018-04-17T14:16:32.656Z,102056.27
2018-04-17T14:19:01.280Z,102054.30
2018-04-17T14:21:29.514Z,102057.65
2018-04-17T14:23:57.757Z,102062.62
2018-04-17T14:26:26.271Z,102063.53
2018-04-17T14:28:54.486Z,102063.19
2018-04-17T14:31:22.951Z,102065.19
2018-04-17T14:33:51.426Z,102065.84
2018-04-17T14:36:19.651Z,102065.20
2018-04-17T14:38:48.090Z,102072.41
2018-04-17T14:41:16.558Z,102070.34
2018-04-17T14:43:44.792Z,102063.19
2018-04-17T14:46:13.115Z,102068.60
2018-04-17T14:48:41.592Z,102063.38
2018-04-17T14:51:09.787Z,102067.25
2018-04-17T14:53:38.142Z,102062.74
2018-04-17T14:56:06.740Z,102063.50
2018-04-17T14:58:34.960Z,102063.38
2018-04-17T15:01:03.326Z,102069.56
2018-04-17T15:03:31.889Z,102073.70
2018-04-17T15:06:00.104Z,102069.36
2018-04-17T15:08:28.378Z,102073.73
2018-04-17T15:10:57.125Z,102074.09
2018-04-17T15:13:25.340Z,102072.25
2018-04-17T15:15:53.649Z,102066.78
2018-04-17T15:18:22.218Z,102077.85
2018-04-17T15:20:50.448Z,102072.02
2018-04-17T15:23:18.791Z,102072.81
2018-04-17T15:25:47.321Z,102082.20
2018-04-17T15:28:15.538Z,102085.01
2018-04-17T15:30:43.953Z,102079.66
2018-04-17T15:33:12.860Z,102076.77
2018-04-17T15:35:41.568Z,102064.05
2018-04-17T15:38:09.773Z,102063.73
2018-04-17T15:40:38.559Z,102059.30
2018-04-17T15:43:07.532Z,102062.12
2018-04-17T15:45:35.783Z,102065.20
2018-04-17T15:48:04.639Z,102063.44
2018-04-17T15:50:33.817Z,102063.64
2018-04-17T15:53:03.141Z,102060.19
2018-04-17T15:55:31.377Z,102060.87
2018-04-17T15:57:59.575Z,102056.33
2018-04-17T16:00:28.463Z,102064.72
2018-04-17T16:02:57.482Z,102063.44
2018-04-17T16:05:26.400Z,102057.00
2018-04-17T16:07:54.569Z,102063.85
2018-04-17T16:10:23.507Z,102066.23
2018-04-17T16:12:52.500Z,102063.91
2018-04-17T16:15:20.677Z,102062.25
2018-04-17T16:17:49.499Z,102070.45
2018-04-17T16:20:18.461Z,102072.83
2018-04-17T16:22:47.610Z,102069.95
2018-04-17T16:25:15.820Z,102071.58
2018-04-17T16:27:44.619Z,102075.26
2018-04-17T16:30:13.883Z,102085.03
2018-04-17T16:32:42.605Z,102084.20
2018-04-17T16:35:10.776Z,102079.56
2018-04-17T16:37:39.005Z,102081.34
2018-04-17T16:40:07.604Z,102082.83
2018-04-17T16:42:36.702Z,102081.50
2018-04-17T16:45:04.908Z,102081.73
2018-04-17T16:47:33.611Z,102086.86
2018-04-17T16:50:02.076Z,102085.23
2018-04-17T16:52:30.309Z,102090.84
2018-04-17T16:54:59.077Z,102088.54
2018-04-17T16:57:27.774Z,102094.09
2018-04-17T16:59:55.993Z,102095.31
2018-04-17T17:02:24.790Z,102101.81
2018-04-17T17:04:53.488Z,102104.45
2018-04-17T17:07:21.722Z,102110.20
2018-04-17T17:09:50.000Z,102103.23
2018-04-17T17:12:18.602Z,102110.75
2018-04-17T17:14:46.805Z,102107.82
2018-04-17T17:17:15.233Z,102116.66
2018-04-17T17:19:43.847Z,102108.67
2018-04-17T17:22:12.045Z,102120.03
2018-04-17T17:24:40.384Z,102109.62
2018-04-17T17:27:09.003Z,102112.43
2018-04-17T17:29:38.411Z,102105.66
2018-04-17T17:32:06.619Z,102099.80
2018-04-17T17:34:35.505Z,102096.98
2018-04-17T17:37:04.972Z,102112.19
2018-04-17T17:39:33.555Z,102122.71
2018-04-17T17:42:01.772Z,102128.80
2018-04-17T17:44:30.053Z,102136.32
2018-04-17T17:46:58.796Z,102132.98
2018-04-17T17:49:26.990Z,102136.02
2018-04-17T17:51:55.251Z,102139.88
2018-04-17T17:54:23.938Z,102141.51
2018-04-17T17:56:52.184Z,102143.90
2018-04-17T17:59:20.398Z,102143.38
2018-04-17T18:01:49.197Z,102147.29
2018-04-17T18:04:17.406Z,102151.56
2018-04-17T18:06:45.645Z,102151.68
2018-04-17T18:09:14.238Z,102153.41
2018-04-17T18:11:42.498Z,102151.39
2018-04-17T18:14:10.756Z,102151.69
2018-04-17T18:16:39.427Z,102157.07
2018-04-17T18:19:07.866Z,102163.25
2018-04-17T18:21:36.057Z,102166.08
2018-04-17T18:24:04.668Z,102163.50
2018-04-17T18:26:35.381Z,102167.28
2018-04-17T18:29:03.827Z,102174.09
2018-04-17T18:31:32.452Z,102173.77
2018-04-17T18:34:01.433Z,102174.20
2018-04-17T18:36:29.652Z,102182.11
2018-04-17T18:38:57.918Z,102180.20
2018-04-17T18:41:27.593Z,102187.70
2018-04-17T18:43:55.846Z,102182.99
2018-04-17T18:46:24.065Z,102186.94
2018-04-17T18:48:52.729Z,102185.80
2018-04-17T18:51:20.988Z,102197.62
2018-04-17T18:53:49.535Z,102198.56
2018-04-17T18:56:19.088Z,102200.16
2018-04-17T18:58:47.890Z,102206.61
2018-04-17T19:01:16.125Z,102206.70
2018-04-17T19:03:44.333Z,102211.13
2018-04-17T19:06:13.217Z,102212.41
2018-04-17T19:08:42.143Z,102217.34
2018-04-17T19:11:10.621Z,102226.02
2018-04-17T19:13:39.318Z,102222.87
2018-04-17T19:16:07.978Z,102229.78
2018-04-17T19:18:37.294Z,102233.62
2018-04-17T19:21:05.501Z,102237.88
2018-04-17T19:23:33.772Z,102239.34
2018-04-17T19:26:02.538Z,102241.02
2018-04-17T19:28:30.779Z,102244.58
2018-04-17T19:30:59.547Z,102248.62
2018-04-17T19:33:28.173Z,102249.82
2018-04-17T19:35:57.043Z,102254.75
2018-04-17T19:38:25.255Z,102251.22
2018-04-17T19:40:54.515Z,102249.36
2018-04-17T19:43:23.390Z,102259.81
2018-04-17T19:45:51.585Z,102257.24
2018-04-17T19:48:19.954Z,102264.55
2018-04-17T19:50:48.542Z,102261.25
2018-04-17T19:53:16.881Z,102271.00
2018-04-17T19:55:45.121Z,102277.84
2018-04-17T19:58:15.481Z,102278.04
2018-04-17T20:00:44.420Z,102280.86
2018-04-17T20:03:13.730Z,102276.94
2018-04-17T20:05:41.967Z,102276.94
2018-04-17T20:08:11.076Z,102278.83
2018-04-17T20:10:39.808Z,102273.00
2018-04-17T20:13:09.113Z,102281.39
2018-04-17T20:15:37.362Z,102282.86
2018-04-17T20:18:05.613Z,102287.83
2018-04-17T20:20:34.287Z,102293.12
2018-04-17T20:23:02.559Z,102284.03
2018-04-17T20:25:30.832Z,102291.73
2018-04-17T20:27:59.367Z,102296.96
2018-04-17T20:30:27.608Z,102293.41
2018-04-17T20:32:55.923Z,102299.50
2018-04-17T20:35:24.502Z,102294.26
2018-04-17T20:37:52.727Z,102297.55
2018-04-17T20:40:21.007Z,102289.38
2018-04-17T20:42:49.753Z,102295.47
2018-04-17T20:45:17.987Z,102302.61
2018-04-17T20:47:46.185Z,102307.97
2018-04-17T20:50:14.735Z,102300.20
2018-04-17T20:52:43.816Z,102305.03
2018-04-17T20:55:11.999Z,102307.59
2018-04-17T20:57:40.625Z,102303.44
2018-04-17T21:00:09.341Z,102305.13
2018-04-17T21:02:37.547Z,102305.45
2018-04-17T21:05:05.753Z,102307.88
2018-04-17T21:07:34.530Z,102308.95
2018-04-17T21:10:02.750Z,102311.83
2018-04-17T21:12:30.985Z,102312.55
2018-04-17T21:14:59.680Z,102312.57
2018-04-17T21:17:27.909Z,102316.31
2018-04-17T21:19:56.179Z,102324.51
2018-04-17T21:22:25.010Z,102318.52
2018-04-17T21:24:53.213Z,102323.08
2018-04-17T21:27:21.426Z,102319.67
2018-04-17T21:29:50.124Z,102332.30
2018-04-17T21:32:18.316Z,102330.15
2018-04-17T21:34:47.415Z,102334.34
2018-04-17T21:37:15.834Z,102334.59
2018-04-17T21:39:44.075Z,102340.22
2018-04-17T21:42:12.442Z,102347.56
2018-04-17T21:44:40.992Z,102347.31
2018-04-17T21:47:09.325Z,102341.75
2018-04-17T21:49:37.635Z,102345.84
2018-04-17T21:52:06.212Z,102345.42
2018-04-17T21:54:34.447Z,102352.80
2018-04-17T21:57:02.724Z,102348.27
2018-04-17T21:59:31.341Z,102352.27
2018-04-17T22:01:59.563Z,102353.58
2018-04-17T22:04:28.149Z,102360.64
2018-04-17T22:06:56.567Z,102361.78
2018-04-17T22:09:24.779Z,102366.47
2018-04-17T22:11:53.099Z,102366.73
2018-04-17T22:14:21.737Z,102373.56
2018-04-17T22:16:49.986Z,102363.13
2018-04-17T22:19:18.401Z,102366.98
2018-04-17T22:21:46.928Z,102370.33
2018-04-17T22:24:15.144Z,102370.28
2018-04-17T22:26:43.538Z,102370.74
2018-04-17T22:29:12.562Z,102375.36
2018-04-17T22:31:41.784Z,102373.31
2018-04-17T22:34:09.996Z,102375.67
2018-04-17T22:36:38.195Z,102380.95
2018-04-17T22:39:06.884Z,102383.56
2018-04-17T22:41:35.071Z,102388.91
2018-04-17T22:44:03.288Z,102392.79
2018-04-17T22:46:32.646Z,102392.61
2018-04-17T22:49:00.842Z,102390.41
2018-04-17T22:51:29.455Z,102394.62
2018-04-17T22:53:58.102Z,102392.25
2018-04-17T22:56:27.154Z,102403.41
2018-04-17T22:58:55.365Z,102397.92
2018-04-17T23:01:24.357Z,102402.42
2018-04-17T23:03:52.941Z,102398.80
2018-04-17T23:06:22.475Z,102401.33
2018-04-17T23:08:50.643Z,102405.68
2018-04-17T23:11:18.898Z,102406.32
2018-04-17T23:13:47.699Z,102409.41
2018-04-17T23:16:15.915Z,102414.91
2018-04-17T23:18:44.133Z,102412.94
2018-04-17T23:21:12.897Z,102410.48
2018-04-17T23:23:42.013Z,102410.06
2018-04-17T23:26:10.229Z,102414.27
2018-04-17T23:28:38.766Z,102417.03
2018-04-17T23:31:07.017Z,102424.86
2018-04-17T23:33:35.292Z,102419.38
2018-04-17T23:36:03.863Z,102420.05
2018-04-17T23:38:32.094Z,102417.56
2018-04-17T23:41:00.330Z,102420.77
2018-04-17T23:43:29.855Z,102428.48
2018-04-17T23:45:58.538Z,102419.27
2018-04-17T23:48:26.749Z,102415.52
2018-04-17T23:50:54.945Z,102425.05
2018-04-17T23:53:23.666Z,102421.55
2018-04-17T23:55:51.871Z,102423.73
2018-04-17T23:58:20.534Z,102432.25
